Terminal Aerodrome Forecast
Issued by NWS Sterling, VA

Current Version | Previous Version | Graphics & Text | Print | Product List | Glossary On
Versions: 1 2 3 4 5 6 7 8 9 10 11 12 13 14 15 16 17 18 19 20 21 22 23 24 25 26
406
FTUS41 KLWX 201448 AAA
TAFIAD
TAF AMD
KIAD 201448Z 2015/2118 15005KT 5SM -RA SCT003 OVC035
     FM201800 16006KT 2SM -RA SCT003 OVC015
     FM202000 15005KT P6SM SCT003 OVC015
     FM210000 16006KT 3SM -DZ BR SCT003 OVC008
     FM210600 VRB03KT 3SM -DZ BR SCT003 OVC005=

USA.gov is the U.S. government's official web portal to all federal, state and local government web resources and services.